sensor_id;sensor_type;location;lat;lon;timestamp;pressure;altitude;pressure_sealevel;temperature;humidity
3464;BME280;3551;41.578;24.706;2023-06-22T00:02:00;91700.50;;;17.58;93.31
3464;BME280;3551;41.578;24.706;2023-06-22T00:04:26;91703.38;;;17.83;91.60
3464;BME280;3551;41.578;24.706;2023-06-22T00:06:53;91706.63;;;17.42;94.38
3464;BME280;3551;41.578;24.706;2023-06-22T00:09:22;91704.91;;;17.68;92.91
3464;BME280;3551;41.578;24.706;2023-06-22T00:11:48;91706.09;;;17.83;92.20
3464;BME280;3551;41.578;24.706;2023-06-22T00:14:15;91702.97;;;18.01;92.68
3464;BME280;3551;41.578;24.706;2023-06-22T00:16:43;91706.75;;;18.03;91.48
3464;BME280;3551;41.578;24.706;2023-06-22T00:19:13;91704.66;;;17.94;92.40
3464;BME280;3551;41.578;24.706;2023-06-22T00:21:40;91707.44;;;17.91;92.17
3464;BME280;3551;41.578;24.706;2023-06-22T00:24:07;91714.03;;;17.90;91.71
3464;BME280;3551;41.578;24.706;2023-06-22T00:26:34;91715.03;;;17.96;91.10
3464;BME280;3551;41.578;24.706;2023-06-22T00:29:00;91720.44;;;17.96;91.14
3464;BME280;3551;41.578;24.706;2023-06-22T00:31:27;91709.88;;;18.02;91.66
3464;BME280;3551;41.578;24.706;2023-06-22T00:33:55;91707.34;;;17.94;89.61
3464;BME280;3551;41.578;24.706;2023-06-22T00:36:22;91711.25;;;17.93;89.59
3464;BME280;3551;41.578;24.706;2023-06-22T00:38:50;91710.06;;;17.62;90.74
3464;BME280;3551;41.578;24.706;2023-06-22T00:41:16;91714.09;;;17.18;93.58
3464;BME280;3551;41.578;24.706;2023-06-22T00:43:43;91718.41;;;17.16;93.70
3464;BME280;3551;41.578;24.706;2023-06-22T00:46:09;91707.34;;;16.91;95.75
3464;BME280;3551;41.578;24.706;2023-06-22T00:48:36;91713.88;;;17.29;93.95
3464;BME280;3551;41.578;24.706;2023-06-22T00:51:04;91720.47;;;17.44;92.94
3464;BME280;3551;41.578;24.706;2023-06-22T00:53:31;91721.50;;;17.50;92.13
3464;BME280;3551;41.578;24.706;2023-06-22T00:56:00;91725.59;;;17.58;92.22
3464;BME280;3551;41.578;24.706;2023-06-22T00:58:28;91731.19;;;17.67;91.31
3464;BME280;3551;41.578;24.706;2023-06-22T01:00:55;91732.84;;;17.45;91.70
3464;BME280;3551;41.578;24.706;2023-06-22T01:03:23;91734.56;;;17.55;90.85
3464;BME280;3551;41.578;24.706;2023-06-22T01:05:50;91725.06;;;17.47;91.52
3464;BME280;3551;41.578;24.706;2023-06-22T01:08:21;91732.13;;;17.25;92.56
3464;BME280;3551;41.578;24.706;2023-06-22T01:10:51;91724.34;;;17.27;92.77
3464;BME280;3551;41.578;24.706;2023-06-22T01:13:23;91718.03;;;17.14;93.24
3464;BME280;3551;41.578;24.706;2023-06-22T01:15:53;91727.34;;;17.13;93.67
3464;BME280;3551;41.578;24.706;2023-06-22T01:18:21;91730.00;;;17.32;92.23
3464;BME280;3551;41.578;24.706;2023-06-22T01:20:51;91721.47;;;17.34;92.43
3464;BME280;3551;41.578;24.706;2023-06-22T01:23:25;91720.72;;;17.33;92.89
3464;BME280;3551;41.578;24.706;2023-06-22T01:25:54;91718.59;;;17.25;92.15
3464;BME280;3551;41.578;24.706;2023-06-22T01:28:32;91716.19;;;17.11;93.48
3464;BME280;3551;41.578;24.706;2023-06-22T01:30:59;91723.78;;;16.80;95.54
3464;BME280;3551;41.578;24.706;2023-06-22T01:33:31;91723.63;;;17.07;93.80
3464;BME280;3551;41.578;24.706;2023-06-22T01:35:59;91725.69;;;17.19;93.04
3464;BME280;3551;41.578;24.706;2023-06-22T01:38:27;91721.22;;;17.28;92.68
3464;BME280;3551;41.578;24.706;2023-06-22T01:40:54;91715.31;;;17.33;92.25
3464;BME280;3551;41.578;24.706;2023-06-22T01:43:21;91718.50;;;17.28;92.07
3464;BME280;3551;41.578;24.706;2023-06-22T01:45:50;91710.25;;;17.00;93.30
3464;BME280;3551;41.578;24.706;2023-06-22T01:48:17;91711.53;;;17.11;93.18
3464;BME280;3551;41.578;24.706;2023-06-22T01:50:44;91707.75;;;17.09;93.63
3464;BME280;3551;41.578;24.706;2023-06-22T01:53:11;91711.09;;;17.32;92.89
3464;BME280;3551;41.578;24.706;2023-06-22T01:55:37;91707.66;;;17.48;91.05
3464;BME280;3551;41.578;24.706;2023-06-22T01:58:04;91711.19;;;17.45;91.58
3464;BME280;3551;41.578;24.706;2023-06-22T02:00:31;91717.59;;;17.35;91.42
3464;BME280;3551;41.578;24.706;2023-06-22T02:03:01;91714.16;;;17.15;92.32
3464;BME280;3551;41.578;24.706;2023-06-22T02:05:31;91720.22;;;17.03;93.15
3464;BME280;3551;41.578;24.706;2023-06-22T02:08:00;91720.03;;;16.74;94.52
3464;BME280;3551;41.578;24.706;2023-06-22T02:10:28;91723.53;;;16.51;96.40
3464;BME280;3551;41.578;24.706;2023-06-22T02:12:56;91729.41;;;16.69;95.20
3464;BME280;3551;41.578;24.706;2023-06-22T02:15:23;91725.38;;;16.58;95.92
3464;BME280;3551;41.578;24.706;2023-06-22T02:17:51;91721.91;;;16.77;94.48
3464;BME280;3551;41.578;24.706;2023-06-22T02:20:19;91725.69;;;16.99;93.25
3464;BME280;3551;41.578;24.706;2023-06-22T02:22:46;91733.31;;;16.84;93.94
3464;BME280;3551;41.578;24.706;2023-06-22T02:25:12;91731.72;;;16.87;93.77
3464;BME280;3551;41.578;24.706;2023-06-22T02:27:39;91733.38;;;17.01;93.01
3464;BME280;3551;41.578;24.706;2023-06-22T02:30:07;91732.88;;;17.06;91.72
3464;BME280;3551;41.578;24.706;2023-06-22T02:32:33;91736.84;;;16.81;92.99
3464;BME280;3551;41.578;24.706;2023-06-22T02:35:00;91733.66;;;16.67;94.05
3464;BME280;3551;41.578;24.706;2023-06-22T02:37:30;91737.56;;;16.66;94.37
3464;BME280;3551;41.578;24.706;2023-06-22T02:39:57;91738.03;;;16.38;95.85
3464;BME280;3551;41.578;24.706;2023-06-22T02:42:24;91741.03;;;16.66;94.52
3464;BME280;3551;41.578;24.706;2023-06-22T02:44:50;91735.53;;;16.70;94.18
3464;BME280;3551;41.578;24.706;2023-06-22T02:47:17;91739.47;;;16.85;93.59
3464;BME280;3551;41.578;24.706;2023-06-22T02:49:44;91740.28;;;17.02;92.58
3464;BME280;3551;41.578;24.706;2023-06-22T02:52:11;91749.09;;;17.06;92.28
3464;BME280;3551;41.578;24.706;2023-06-22T02:54:39;91749.41;;;16.92;93.40
3464;BME280;3551;41.578;24.706;2023-06-22T02:57:06;91746.28;;;16.73;94.07
3464;BME280;3551;41.578;24.706;2023-06-22T02:59:39;91749.97;;;16.40;96.81
3464;BME280;3551;41.578;24.706;2023-06-22T03:02:07;91746.22;;;16.34;97.98
3464;BME280;3551;41.578;24.706;2023-06-22T03:04:34;91752.47;;;16.51;96.25
3464;BME280;3551;41.578;24.706;2023-06-22T03:07:00;91752.94;;;16.69;95.18
3464;BME280;3551;41.578;24.706;2023-06-22T03:09:28;91749.81;;;16.70;94.62
3464;BME280;3551;41.578;24.706;2023-06-22T03:11:56;91751.47;;;16.64;95.46
3464;BME280;3551;41.578;24.706;2023-06-22T03:14:23;91750.28;;;16.85;94.41
3464;BME280;3551;41.578;24.706;2023-06-22T03:16:50;91756.88;;;16.84;94.06
3464;BME280;3551;41.578;24.706;2023-06-22T03:19:16;91761.09;;;16.85;93.68
3464;BME280;3551;41.578;24.706;2023-06-22T03:21:44;91763.59;;;16.53;96.32
3464;BME280;3551;41.578;24.706;2023-06-22T03:24:11;91758.59;;;16.55;96.50
3464;BME280;3551;41.578;24.706;2023-06-22T03:26:38;91766.22;;;16.79;95.15
3464;BME280;3551;41.578;24.706;2023-06-22T03:29:06;91770.72;;;16.86;94.85
3464;BME280;3551;41.578;24.706;2023-06-22T03:31:32;91766.84;;;16.67;95.77
3464;BME280;3551;41.578;24.706;2023-06-22T03:33:59;91767.94;;;16.70;95.92
3464;BME280;3551;41.578;24.706;2023-06-22T03:36:26;91772.25;;;16.87;95.33
3464;BME280;3551;41.578;24.706;2023-06-22T03:38:53;91767.47;;;16.75;96.34
3464;BME280;3551;41.578;24.706;2023-06-22T03:41:19;91764.63;;;17.02;95.87
3464;BME280;3551;41.578;24.706;2023-06-22T03:43:46;91765.03;;;17.20;94.61
3464;BME280;3551;41.578;24.706;2023-06-22T03:46:14;91771.72;;;16.96;94.96
3464;BME280;3551;41.578;24.706;2023-06-22T03:48:41;91772.81;;;16.98;94.83
3464;BME280;3551;41.578;24.706;2023-06-22T03:51:07;91758.88;;;17.00;93.95
3464;BME280;3551;41.578;24.706;2023-06-22T03:53:35;91766.16;;;16.83;95.32
3464;BME280;3551;41.578;24.706;2023-06-22T03:56:01;91760.28;;;16.88;96.30
3464;BME280;3551;41.578;24.706;2023-06-22T03:58:28;91764.34;;;17.16;93.73
3464;BME280;3551;41.578;24.706;2023-06-22T04:00:58;91753.63;;;17.12;93.53
3464;BME280;3551;41.578;24.706;2023-06-22T04:03:26;91750.13;;;17.12;94.25
3464;BME280;3551;41.578;24.706;2023-06-22T04:05:53;91750.53;;;17.30;93.40
3464;BME280;3551;41.578;24.706;2023-06-22T04:08:20;91743.25;;;17.27;93.31
3464;BME280;3551;41.578;24.706;2023-06-22T04:10:46;91756.72;;;17.30;94.87
3464;BME280;3551;41.578;24.706;2023-06-22T04:13:13;91751.97;;;17.34;94.42
3464;BME280;3551;41.578;24.706;2023-06-22T04:15:40;91755.06;;;17.53;94.42
3464;BME280;3551;41.578;24.706;2023-06-22T04:18:06;91755.53;;;17.83;92.32
3464;BME280;3551;41.578;24.706;2023-06-22T04:20:34;91754.41;;;18.45;89.38
3464;BME280;3551;41.578;24.706;2023-06-22T04:23:01;91758.06;;;18.84;86.72
3464;BME280;3551;41.578;24.706;2023-06-22T04:25:28;91765.66;;;19.59;82.33
3464;BME280;3551;41.578;24.706;2023-06-22T04:27:54;91758.06;;;20.30;78.46
3464;BME280;3551;41.578;24.706;2023-06-22T04:30:21;91770.06;;;20.54;76.10
3464;BME280;3551;41.578;24.706;2023-06-22T04:32:48;91770.75;;;21.14;72.95
3464;BME280;3551;41.578;24.706;2023-06-22T04:35:21;91777.31;;;21.47;73.06
3464;BME280;3551;41.578;24.706;2023-06-22T04:37:52;91780.72;;;21.60;71.54
3464;BME280;3551;41.578;24.706;2023-06-22T04:40:20;91780.34;;;21.49;72.41
3464;BME280;3551;41.578;24.706;2023-06-22T04:42:47;91781.59;;;21.79;69.99
3464;BME280;3551;41.578;24.706;2023-06-22T04:45:18;91782.03;;;22.08;68.80
3464;BME280;3551;41.578;24.706;2023-06-22T04:47:45;91788.31;;;22.36;68.06
3464;BME280;3551;41.578;24.706;2023-06-22T04:50:12;91783.91;;;22.69;67.63
3464;BME280;3551;41.578;24.706;2023-06-22T04:52:39;91789.31;;;22.60;66.95
3464;BME280;3551;41.578;24.706;2023-06-22T04:55:07;91783.59;;;22.85;66.11
3464;BME280;3551;41.578;24.706;2023-06-22T04:57:34;91782.56;;;23.28;65.69
3464;BME280;3551;41.578;24.706;2023-06-22T05:00:05;91782.59;;;23.46;65.16
3464;BME280;3551;41.578;24.706;2023-06-22T05:02:37;91784.94;;;23.81;63.22
3464;BME280;3551;41.578;24.706;2023-06-22T05:05:04;91778.84;;;23.86;62.85
3464;BME280;3551;41.578;24.706;2023-06-22T05:07:32;91781.88;;;23.88;62.96
3464;BME280;3551;41.578;24.706;2023-06-22T05:09:59;91774.53;;;24.03;61.94
3464;BME280;3551;41.578;24.706;2023-06-22T05:12:27;91775.56;;;24.24;61.65
3464;BME280;3551;41.578;24.706;2023-06-22T05:14:53;91781.06;;;24.80;59.35
3464;BME280;3551;41.578;24.706;2023-06-22T05:17:20;91782.75;;;25.01;57.89
3464;BME280;3551;41.578;24.706;2023-06-22T05:19:47;91776.25;;;25.13;58.69
3464;BME280;3551;41.578;24.706;2023-06-22T05:22:14;91774.56;;;25.16;57.11
3464;BME280;3551;41.578;24.706;2023-06-22T05:24:41;91781.78;;;25.28;58.16
3464;BME280;3551;41.578;24.706;2023-06-22T05:27:08;91770.91;;;25.57;55.89
3464;BME280;3551;41.578;24.706;2023-06-22T05:29:37;91773.00;;;25.62;55.85
3464;BME280;3551;41.578;24.706;2023-06-22T05:32:05;91771.50;;;25.38;56.98
3464;BME280;3551;41.578;24.706;2023-06-22T05:34:32;91769.41;;;25.56;56.09
3464;BME280;3551;41.578;24.706;2023-06-22T05:36:59;91768.16;;;25.57;56.73
3464;BME280;3551;41.578;24.706;2023-06-22T05:39:26;91772.44;;;25.73;55.94
3464;BME280;3551;41.578;24.706;2023-06-22T05:41:52;91761.13;;;25.42;57.31
3464;BME280;3551;41.578;24.706;2023-06-22T05:44:19;91766.19;;;25.19;57.97
3464;BME280;3551;41.578;24.706;2023-06-22T05:46:47;91768.16;;;26.01;55.52
3464;BME280;3551;41.578;24.706;2023-06-22T05:49:14;91766.13;;;26.46;52.84
3464;BME280;3551;41.578;24.706;2023-06-22T05:51:41;91754.75;;;26.67;53.37
3464;BME280;3551;41.578;24.706;2023-06-22T05:54:08;91759.78;;;26.54;52.98
3464;BME280;3551;41.578;24.706;2023-06-22T05:56:35;91748.13;;;26.59;52.96
3464;BME280;3551;41.578;24.706;2023-06-22T05:59:02;91745.53;;;26.50;54.30
3464;BME280;3551;41.578;24.706;2023-06-22T06:01:28;91747.63;;;26.41;54.35
3464;BME280;3551;41.578;24.706;2023-06-22T06:03:57;91749.31;;;26.73;52.88
3464;BME280;3551;41.578;24.706;2023-06-22T06:06:24;91748.78;;;27.09;52.69
3464;BME280;3551;41.578;24.706;2023-06-22T06:08:53;91753.25;;;27.07;51.17
3464;BME280;3551;41.578;24.706;2023-06-22T06:11:20;91756.28;;;27.09;51.39
3464;BME280;3551;41.578;24.706;2023-06-22T06:13:47;91746.72;;;27.45;52.32
3464;BME280;3551;41.578;24.706;2023-06-22T06:16:14;91732.78;;;27.28;49.68
3464;BME280;3551;41.578;24.706;2023-06-22T06:18:40;91732.06;;;27.53;52.09
3464;BME280;3551;41.578;24.706;2023-06-22T06:21:09;91739.13;;;27.85;49.75
3464;BME280;3551;41.578;24.706;2023-06-22T06:23:35;91737.47;;;27.68;48.50
3464;BME280;3551;41.578;24.706;2023-06-22T06:26:02;91731.06;;;27.76;50.77
3464;BME280;3551;41.578;24.706;2023-06-22T06:28:32;91725.66;;;27.87;50.21
3464;BME280;3551;41.578;24.706;2023-06-22T06:30:59;91720.50;;;28.26;45.50
3464;BME280;3551;41.578;24.706;2023-06-22T06:33:27;91726.00;;;28.26;47.58
3464;BME280;3551;41.578;24.706;2023-06-22T06:35:53;91725.09;;;28.40;49.88
3464;BME280;3551;41.578;24.706;2023-06-22T06:38:22;91721.59;;;28.82;43.28
3464;BME280;3551;41.578;24.706;2023-06-22T06:40:49;91731.19;;;28.92;45.07
3464;BME280;3551;41.578;24.706;2023-06-22T06:43:16;91728.53;;;29.20;42.40
3464;BME280;3551;41.578;24.706;2023-06-22T06:45:42;91725.09;;;29.31;43.11
3464;BME280;3551;41.578;24.706;2023-06-22T06:48:09;91726.53;;;29.21;46.06
3464;BME280;3551;41.578;24.706;2023-06-22T06:50:36;91720.13;;;29.51;43.93
3464;BME280;3551;41.578;24.706;2023-06-22T06:53:02;91723.16;;;29.48;41.84
3464;BME280;3551;41.578;24.706;2023-06-22T06:55:32;91717.16;;;29.61;41.48
3464;BME280;3551;41.578;24.706;2023-06-22T06:58:00;91711.41;;;29.70;41.45
3464;BME280;3551;41.578;24.706;2023-06-22T07:00:28;91714.94;;;29.76;40.70
3464;BME280;3551;41.578;24.706;2023-06-22T07:02:55;91708.09;;;29.38;42.80
3464;BME280;3551;41.578;24.706;2023-06-22T07:05:21;91712.84;;;29.43;43.90
3464;BME280;3551;41.578;24.706;2023-06-22T07:07:48;91707.41;;;29.71;39.62
3464;BME280;3551;41.578;24.706;2023-06-22T07:10:15;91703.16;;;29.92;41.16
3464;BME280;3551;41.578;24.706;2023-06-22T07:12:44;91700.84;;;29.46;42.99
3464;BME280;3551;41.578;24.706;2023-06-22T07:15:11;91711.19;;;29.84;42.25
3464;BME280;3551;41.578;24.706;2023-06-22T07:17:38;91714.47;;;30.10;40.32
3464;BME280;3551;41.578;24.706;2023-06-22T07:20:06;91714.19;;;29.86;40.53
3464;BME280;3551;41.578;24.706;2023-06-22T07:22:37;91719.66;;;29.58;41.76
3464;BME280;3551;41.578;24.706;2023-06-22T07:25:04;91723.16;;;29.53;42.75
3464;BME280;3551;41.578;24.706;2023-06-22T07:27:35;91718.44;;;29.71;40.73
3464;BME280;3551;41.578;24.706;2023-06-22T07:30:05;91724.66;;;29.66;40.36
3464;BME280;3551;41.578;24.706;2023-06-22T07:32:39;91720.75;;;30.17;40.14
3464;BME280;3551;41.578;24.706;2023-06-22T07:35:11;91720.75;;;29.94;40.55
3464;BME280;3551;41.578;24.706;2023-06-22T07:37:38;91719.00;;;29.91;40.16
3464;BME280;3551;41.578;24.706;2023-06-22T07:40:05;91722.22;;;29.95;40.34
3464;BME280;3551;41.578;24.706;2023-06-22T07:42:32;91720.44;;;29.76;38.48
3464;BME280;3551;41.578;24.706;2023-06-22T07:44:59;91729.47;;;29.76;41.70
3464;BME280;3551;41.578;24.706;2023-06-22T07:47:28;91731.66;;;29.44;38.60
3464;BME280;3551;41.578;24.706;2023-06-22T07:49:55;91727.72;;;29.79;37.95
3464;BME280;3551;41.578;24.706;2023-06-22T07:54:58;91723.19;;;29.70;38.54
3464;BME280;3551;41.578;24.706;2023-06-22T07:57:25;91725.94;;;28.94;39.11
3464;BME280;3551;41.578;24.706;2023-06-22T07:59:58;91726.72;;;28.21;39.70
3464;BME280;3551;41.578;24.706;2023-06-22T08:02:26;91723.94;;;27.90;41.21
3464;BME280;3551;41.578;24.706;2023-06-22T08:04:55;91726.34;;;27.82;43.50
3464;BME280;3551;41.578;24.706;2023-06-22T08:07:21;91729.88;;;27.83;44.57
3464;BME280;3551;41.578;24.706;2023-06-22T08:09:48;91727.69;;;27.41;46.37
3464;BME280;3551;41.578;24.706;2023-06-22T08:12:15;91733.97;;;27.21;46.92
3464;BME280;3551;41.578;24.706;2023-06-22T08:14:43;91731.16;;;26.96;47.74
3464;BME280;3551;41.578;24.706;2023-06-22T08:17:11;91733.78;;;26.85;50.72
3464;BME280;3551;41.578;24.706;2023-06-22T08:19:39;91730.06;;;26.88;49.91
3464;BME280;3551;41.578;24.706;2023-06-22T08:22:07;91727.94;;;26.42;53.68
3464;BME280;3551;41.578;24.706;2023-06-22T08:24:34;91730.75;;;26.48;55.04
3464;BME280;3551;41.578;24.706;2023-06-22T08:27:00;91730.47;;;26.46;52.52
3464;BME280;3551;41.578;24.706;2023-06-22T08:29:27;91719.91;;;26.39;52.25
3464;BME280;3551;41.578;24.706;2023-06-22T08:31:54;91718.75;;;26.45;51.35
3464;BME280;3551;41.578;24.706;2023-06-22T08:34:21;91718.91;;;26.21;48.20
3464;BME280;3551;41.578;24.706;2023-06-22T08:36:50;91727.09;;;26.36;50.45
3464;BME280;3551;41.578;24.706;2023-06-22T08:39:18;91720.94;;;26.96;50.60
3464;BME280;3551;41.578;24.706;2023-06-22T08:41:45;91721.94;;;27.65;50.05
3464;BME280;3551;41.578;24.706;2023-06-22T08:44:12;91719.75;;;28.31;47.84
3464;BME280;3551;41.578;24.706;2023-06-22T08:46:39;91715.66;;;28.89;44.33
3464;BME280;3551;41.578;24.706;2023-06-22T08:49:07;91711.94;;;29.03;42.45
3464;BME280;3551;41.578;24.706;2023-06-22T08:51:35;91707.25;;;29.15;41.70
3464;BME280;3551;41.578;24.706;2023-06-22T08:54:02;91702.38;;;28.93;40.50
3464;BME280;3551;41.578;24.706;2023-06-22T08:56:33;91703.16;;;28.99;39.33
3464;BME280;3551;41.578;24.706;2023-06-22T08:59:00;91703.84;;;28.78;37.75
3464;BME280;3551;41.578;24.706;2023-06-22T09:01:27;91705.16;;;28.51;40.63
3464;BME280;3551;41.578;24.706;2023-06-22T09:03:54;91711.28;;;28.35;39.84
3464;BME280;3551;41.578;24.706;2023-06-22T09:06:23;91706.00;;;27.69;36.68
3464;BME280;3551;41.578;24.706;2023-06-22T09:08:50;91708.00;;;27.43;38.57
3464;BME280;3551;41.578;24.706;2023-06-22T09:11:16;91710.00;;;27.22;38.95
3464;BME280;3551;41.578;24.706;2023-06-22T09:13:46;91710.69;;;27.63;39.70
3464;BME280;3551;41.578;24.706;2023-06-22T09:16:13;91713.44;;;28.20;39.65
3464;BME280;3551;41.578;24.706;2023-06-22T09:18:39;91713.41;;;28.14;38.05
3464;BME280;3551;41.578;24.706;2023-06-22T09:21:07;91714.94;;;27.89;40.85
3464;BME280;3551;41.578;24.706;2023-06-22T09:23:34;91710.31;;;27.75;42.27
3464;BME280;3551;41.578;24.706;2023-06-22T09:26:00;91719.06;;;28.36;42.62
3464;BME280;3551;41.578;24.706;2023-06-22T09:28:29;91712.13;;;28.46;43.38
3464;BME280;3551;41.578;24.706;2023-06-22T09:30:57;91716.78;;;28.35;40.75
3464;BME280;3551;41.578;24.706;2023-06-22T09:33:24;91711.06;;;28.38;41.27
3464;BME280;3551;41.578;24.706;2023-06-22T09:35:51;91710.25;;;28.64;40.79
3464;BME280;3551;41.578;24.706;2023-06-22T09:38:24;91700.53;;;28.68;40.95
3464;BME280;3551;41.578;24.706;2023-06-22T09:40:51;91694.28;;;28.73;39.20
3464;BME280;3551;41.578;24.706;2023-06-22T09:43:18;91699.38;;;28.49;40.27
3464;BME280;3551;41.578;24.706;2023-06-22T09:45:44;91703.88;;;28.10;41.08
3464;BME280;3551;41.578;24.706;2023-06-22T09:48:14;91690.69;;;27.93;41.60
3464;BME280;3551;41.578;24.706;2023-06-22T09:50:41;91700.66;;;28.17;40.84
3464;BME280;3551;41.578;24.706;2023-06-22T09:53:07;91701.88;;;28.89;41.03
3464;BME280;3551;41.578;24.706;2023-06-22T09:55:35;91692.50;;;29.24;38.87
3464;BME280;3551;41.578;24.706;2023-06-22T09:58:02;91690.78;;;29.37;38.88
3464;BME280;3551;41.578;24.706;2023-06-22T10:00:29;91698.19;;;28.61;39.38
3464;BME280;3551;41.578;24.706;2023-06-22T10:02:56;91699.75;;;28.00;39.89
3464;BME280;3551;41.578;24.706;2023-06-22T10:05:24;91703.03;;;27.47;41.44
3464;BME280;3551;41.578;24.706;2023-06-22T10:07:54;91707.78;;;27.72;42.31
3464;BME280;3551;41.578;24.706;2023-06-22T10:10:21;91702.63;;;28.11;40.54
3464;BME280;3551;41.578;24.706;2023-06-22T10:12:54;91701.94;;;28.58;40.87
3464;BME280;3551;41.578;24.706;2023-06-22T10:15:20;91707.47;;;29.12;40.35
3464;BME280;3551;41.578;24.706;2023-06-22T10:17:47;91704.34;;;29.52;40.23
3464;BME280;3551;41.578;24.706;2023-06-22T10:20:14;91700.63;;;29.66;39.54
3464;BME280;3551;41.578;24.706;2023-06-22T10:22:44;91704.38;;;29.69;39.12
3464;BME280;3551;41.578;24.706;2023-06-22T10:25:12;91697.56;;;29.36;40.87
3464;BME280;3551;41.578;24.706;2023-06-22T10:27:39;91697.66;;;28.99;41.77
3464;BME280;3551;41.578;24.706;2023-06-22T10:30:09;91699.16;;;28.16;40.30
3464;BME280;3551;41.578;24.706;2023-06-22T10:32:38;91699.00;;;27.22;42.06
3464;BME280;3551;41.578;24.706;2023-06-22T10:35:05;91691.09;;;27.29;42.90
3464;BME280;3551;41.578;24.706;2023-06-22T10:37:32;91693.06;;;27.75;42.79
3464;BME280;3551;41.578;24.706;2023-06-22T10:40:00;91691.94;;;27.87;43.17
3464;BME280;3551;41.578;24.706;2023-06-22T10:42:27;91683.75;;;27.67;42.53
3464;BME280;3551;41.578;24.706;2023-06-22T10:44:54;91685.66;;;28.18;43.19
3464;BME280;3551;41.578;24.706;2023-06-22T10:47:20;91687.56;;;28.43;43.31
3464;BME280;3551;41.578;24.706;2023-06-22T10:49:47;91681.97;;;27.64;44.17
3464;BME280;3551;41.578;24.706;2023-06-22T10:52:14;91678.94;;;27.36;44.41
3464;BME280;3551;41.578;24.706;2023-06-22T10:54:40;91676.38;;;27.53;45.02
3464;BME280;3551;41.578;24.706;2023-06-22T10:57:09;91681.47;;;27.39;45.97
3464;BME280;3551;41.578;24.706;2023-06-22T10:59:35;91670.81;;;27.73;45.54
3464;BME280;3551;41.578;24.706;2023-06-22T11:02:02;91669.44;;;27.88;44.95
3464;BME280;3551;41.578;24.706;2023-06-22T11:04:29;91671.78;;;28.01;44.69
3464;BME280;3551;41.578;24.706;2023-06-22T11:06:56;91671.72;;;28.27;44.57
3464;BME280;3551;41.578;24.706;2023-06-22T11:09:22;91669.50;;;28.31;44.12
3464;BME280;3551;41.578;24.706;2023-06-22T11:11:49;91670.16;;;28.15;43.72
3464;BME280;3551;41.578;24.706;2023-06-22T11:14:20;91662.69;;;28.21;44.43
3464;BME280;3551;41.578;24.706;2023-06-22T11:16:46;91674.34;;;28.47;44.84
3464;BME280;3551;41.578;24.706;2023-06-22T11:19:13;91669.78;;;28.02;44.96
3464;BME280;3551;41.578;24.706;2023-06-22T11:21:40;91663.97;;;27.63;45.15
3464;BME280;3551;41.578;24.706;2023-06-22T11:24:07;91674.44;;;27.90;44.94
3464;BME280;3551;41.578;24.706;2023-06-22T11:26:33;91674.47;;;27.64;45.96
3464;BME280;3551;41.578;24.706;2023-06-22T11:29:02;91672.13;;;27.83;46.02
3464;BME280;3551;41.578;24.706;2023-06-22T11:31:32;91672.31;;;28.05;45.20
3464;BME280;3551;41.578;24.706;2023-06-22T11:36:41;91678.34;;;28.46;44.43
3464;BME280;3551;41.578;24.706;2023-06-22T11:39:08;91671.34;;;28.45;44.08
3464;BME280;3551;41.578;24.706;2023-06-22T11:41:34;91670.00;;;28.29;43.90
3464;BME280;3551;41.578;24.706;2023-06-22T11:44:01;91667.28;;;28.35;43.87
3464;BME280;3551;41.578;24.706;2023-06-22T11:46:29;91665.00;;;28.28;44.56
3464;BME280;3551;41.578;24.706;2023-06-22T11:48:58;91665.88;;;28.51;42.99
3464;BME280;3551;41.578;24.706;2023-06-22T11:51:25;91662.97;;;28.28;43.50
3464;BME280;3551;41.578;24.706;2023-06-22T11:53:51;91670.41;;;28.59;43.03
3464;BME280;3551;41.578;24.706;2023-06-22T11:56:18;91670.59;;;28.44;42.52
3464;BME280;3551;41.578;24.706;2023-06-22T11:58:45;91658.66;;;28.16;43.96
3464;BME280;3551;41.578;24.706;2023-06-22T12:01:12;91666.09;;;27.79;44.25
3464;BME280;3551;41.578;24.706;2023-06-22T12:03:40;91663.25;;;27.68;46.05
3464;BME280;3551;41.578;24.706;2023-06-22T12:06:09;91669.81;;;27.24;45.31
3464;BME280;3551;41.578;24.706;2023-06-22T12:08:37;91666.81;;;27.22;46.27
3464;BME280;3551;41.578;24.706;2023-06-22T12:11:04;91664.50;;;27.41;45.50
3464;BME280;3551;41.578;24.706;2023-06-22T12:13:30;91665.78;;;27.20;45.69
3464;BME280;3551;41.578;24.706;2023-06-22T12:15:59;91668.13;;;27.07;46.14
3464;BME280;3551;41.578;24.706;2023-06-22T12:18:26;91657.81;;;27.22;47.47
3464;BME280;3551;41.578;24.706;2023-06-22T12:20:52;91654.97;;;27.11;47.37
3464;BME280;3551;41.578;24.706;2023-06-22T12:23:21;91662.50;;;27.16;46.95
3464;BME280;3551;41.578;24.706;2023-06-22T12:25:48;91658.66;;;26.82;47.84
3464;BME280;3551;41.578;24.706;2023-06-22T12:28:15;91649.78;;;26.72;47.02
3464;BME280;3551;41.578;24.706;2023-06-22T12:30:42;91644.97;;;26.88;47.08
3464;BME280;3551;41.578;24.706;2023-06-22T12:33:09;91645.03;;;26.93;47.09
3464;BME280;3551;41.578;24.706;2023-06-22T12:35:35;91643.53;;;27.18;47.33
3464;BME280;3551;41.578;24.706;2023-06-22T12:38:02;91641.94;;;27.31;45.35
3464;BME280;3551;41.578;24.706;2023-06-22T12:40:33;91641.50;;;27.38;45.21
3464;BME280;3551;41.578;24.706;2023-06-22T12:42:59;91643.22;;;27.36;45.05
3464;BME280;3551;41.578;24.706;2023-06-22T12:45:27;91649.94;;;27.35;45.20
3464;BME280;3551;41.578;24.706;2023-06-22T12:47:58;91656.31;;;27.21;44.86
3464;BME280;3551;41.578;24.706;2023-06-22T12:50:27;91653.47;;;26.69;45.15
3464;BME280;3551;41.578;24.706;2023-06-22T12:52:55;91646.19;;;26.46;45.95
3464;BME280;3551;41.578;24.706;2023-06-22T12:55:21;91649.78;;;26.52;46.69
3464;BME280;3551;41.578;24.706;2023-06-22T12:57:49;91649.63;;;26.61;46.40
3464;BME280;3551;41.578;24.706;2023-06-22T13:00:16;91653.22;;;26.88;45.28
3464;BME280;3551;41.578;24.706;2023-06-22T13:02:43;91648.72;;;27.10;44.71
3464;BME280;3551;41.578;24.706;2023-06-22T13:05:10;91638.03;;;27.18;46.33
3464;BME280;3551;41.578;24.706;2023-06-22T13:07:37;91645.47;;;27.12;45.97
3464;BME280;3551;41.578;24.706;2023-06-22T13:10:04;91643.94;;;27.05;45.82
3464;BME280;3551;41.578;24.706;2023-06-22T13:12:30;91645.16;;;27.04;46.80
3464;BME280;3551;41.578;24.706;2023-06-22T13:14:58;91644.19;;;27.07;47.83
3464;BME280;3551;41.578;24.706;2023-06-22T13:17:25;91634.66;;;27.03;46.72